Clorinda, Argentina
Current Conditions -  °F | °C
As of 3:00 PM on Monday 20 Oct 2014 (Local Time) from SGAS Reporting Station
Broken Clouds Broken Clouds  
Wind Chill: 31°   Ceiling: 20000
Heat Index: 31°   Visibility: 6mi
Dew Point: 17°   Wind: 7mph
Humidity: 43%   Direction: NA
Pressure: 29.94"   Gusts: NA
Location:  25.29°S, 57.72°W
Report Text: SGAS 201800Z VRB06KT 9999 SCT033 BKN200 31/17 Q1014
Loading
Personal Weather Stations






























Interactive Weather Map
Tropical Storm Tracking
New forecast layout! Learn more

10-Day Weather Forecast

Advertisements
Track Severe Weather on mobile